KGMU/GMU METAR and TAF weather

Enter ICAO airport designator
Station Type Date Time Source
KGMU METAR 2018/12/11 19:53 UTC NOAA

KGMU 111953Z 21007KT 10SM CLR 12/M02 A3017 RMK AO2 SLP220 T01171017


Station Type Date Time Source
KGMU Decoded METAR 2018/12/11 19:53 UTC NOAA

GREENVILLE DOWNTOWN AIRPORT , SC, United States (KGMU) 34-51N 82-21W 315M
Dec 11, 2018 - 02:53 PM EST / 2018.12.11 1953 UTC
Wind: from the SSW (210 degrees) at 8 MPH (7 KT):0
Visibility: 10 mile(s):0
Sky conditions: clear
Temperature: 53.1 F (11.7 C)
Dew Point: 28.9 F (-1.7 C)
Relative Humidity: 39%
Pressure (altimeter): 30.17 in. Hg (1021 hPa)
ob: KGMU 111953Z 21007KT 10SM CLR 12/M02 A3017 RMK AO2 SLP220 T01171017
cycle: 20

Station Type Date Time Source
KGMU TAF 2018/12/11 18:39 UTC NOAA

TAF KGMU 111737Z 1118/1218 26006KT P6SM SKC
FM120500 25003KT P6SM FEW200


Example: see airport list